createdAt,value
2018-11-10T00:01:24.900Z,97738.82
2018-11-10T00:03:56.073Z,97733.83
2018-11-10T00:06:26.755Z,97731.33
2018-11-10T00:08:57.216Z,97734.88
2018-11-10T00:11:27.917Z,97739.39
2018-11-10T00:13:58.509Z,97728.90
2018-11-10T00:16:29.183Z,97731.48
2018-11-10T00:19:00.018Z,97731.47
2018-11-10T00:21:30.715Z,97735.16
2018-11-10T00:24:01.419Z,97739.41
2018-11-10T00:26:32.969Z,97731.12
2018-11-10T00:29:03.665Z,97735.99
2018-11-10T00:31:34.470Z,97741.23
2018-11-10T00:34:06.039Z,97739.20
2018-11-10T00:36:36.995Z,97737.81
2018-11-10T00:39:09.744Z,97734.39
2018-11-10T00:41:40.920Z,97734.77
2018-11-10T00:44:12.272Z,97735.78
2018-11-10T00:46:43.920Z,97737.94
2018-11-10T00:49:14.652Z,97737.27
2018-11-10T00:51:45.300Z,97735.15
2018-11-10T00:54:17.788Z,97731.83
2018-11-10T00:56:48.611Z,97729.33
2018-11-10T00:59:19.815Z,97727.37
2018-11-10T01:01:51.551Z,97721.83
2018-11-10T01:04:22.573Z,97717.20
2018-11-10T01:06:53.792Z,97711.28
2018-11-10T01:09:24.741Z,97712.58
2018-11-10T01:11:55.851Z,97703.50
2018-11-10T01:14:26.457Z,97699.61
2018-11-10T01:16:57.225Z,97700.19
2018-11-10T01:19:28.023Z,97697.21
2018-11-10T01:21:58.687Z,97689.71
2018-11-10T01:24:29.559Z,97685.00
2018-11-10T01:27:00.348Z,97685.82
2018-11-10T01:29:31.045Z,97689.17
2018-11-10T01:32:02.036Z,97690.91
2018-11-10T01:34:33.507Z,97690.56
2018-11-10T01:37:05.022Z,97685.63
2018-11-10T01:39:36.777Z,97678.23
2018-11-10T01:42:07.998Z,97670.35
2018-11-10T01:44:39.305Z,97667.60
2018-11-10T01:47:10.289Z,97651.51
2018-11-10T01:49:40.953Z,97648.53
2018-11-10T01:52:11.559Z,97643.92
2018-11-10T01:54:42.152Z,97646.67
2018-11-10T01:57:12.795Z,97646.67
2018-11-10T01:59:43.465Z,97648.06
2018-11-10T02:02:14.136Z,97651.12
2018-11-10T02:04:44.902Z,97647.89
2018-11-10T02:07:15.861Z,97646.23
2018-11-10T02:09:46.946Z,97648.17
2018-11-10T02:12:17.625Z,97660.66
2018-11-10T02:14:49.223Z,97647.61
2018-11-10T02:17:20.236Z,97639.20
2018-11-10T02:19:51.252Z,97630.13
2018-11-10T02:22:22.300Z,97634.46
2018-11-10T02:24:53.331Z,97628.93
2018-11-10T02:27:24.993Z,97620.77
2018-11-10T02:29:56.277Z,97614.67
2018-11-10T02:32:27.916Z,97605.14
2018-11-10T02:34:58.795Z,97601.84
2018-11-10T02:37:29.580Z,97592.87
2018-11-10T02:40:00.196Z,97586.10
2018-11-10T02:42:30.805Z,97582.02
2018-11-10T02:45:01.471Z,97578.08
2018-11-10T02:47:32.292Z,97555.45
2018-11-10T02:50:02.996Z,97552.09
2018-11-10T02:52:33.787Z,97540.73
2018-11-10T02:55:04.931Z,97544.98
2018-11-10T02:57:35.631Z,97569.66
2018-11-10T03:00:09.083Z,97576.50
2018-11-10T03:02:40.005Z,97583.21
2018-11-10T03:05:11.395Z,97581.61
2018-11-10T03:07:42.674Z,97590.88
2018-11-10T03:10:13.427Z,97588.80
2018-11-10T03:12:45.124Z,97596.73
2018-11-10T03:15:16.122Z,97591.02
2018-11-10T03:17:46.971Z,97582.48
2018-11-10T03:20:17.875Z,97578.91
2018-11-10T03:22:49.417Z,97572.14
2018-11-10T03:25:20.190Z,97566.34
2018-11-10T03:27:51.055Z,97578.88
2018-11-10T03:30:21.732Z,97622.50
2018-11-10T03:32:52.867Z,97618.42
2018-11-10T03:35:23.591Z,97606.84
2018-11-10T03:37:54.434Z,97608.09
2018-11-10T03:40:25.404Z,97617.93
2018-11-10T03:42:56.027Z,97607.66
2018-11-10T03:45:26.723Z,97607.91
2018-11-10T03:47:57.378Z,97600.31
2018-11-10T03:50:27.993Z,97589.03
2018-11-10T03:52:59.056Z,97584.31
2018-11-10T03:55:29.759Z,97580.05
2018-11-10T03:58:00.508Z,97587.73
2018-11-10T04:00:31.335Z,97578.27
2018-11-10T04:03:02.077Z,97580.87
2018-11-10T04:05:32.748Z,97572.89
2018-11-10T04:08:03.335Z,97571.88
2018-11-10T04:10:34.678Z,97566.68
2018-11-10T04:13:05.527Z,97584.27
2018-11-10T04:15:36.295Z,97582.25
2018-11-10T04:18:07.528Z,97584.66
2018-11-10T04:20:38.112Z,97578.41
2018-11-10T04:23:08.846Z,97571.30
2018-11-10T04:25:39.499Z,97580.60
2018-11-10T04:28:10.131Z,97583.08
2018-11-10T04:30:40.735Z,97577.74
2018-11-10T04:33:11.587Z,97574.20
2018-11-10T04:35:42.263Z,97566.56
2018-11-10T04:38:13.871Z,97559.08
2018-11-10T04:40:44.764Z,97553.45
2018-11-10T04:43:15.651Z,97544.08
2018-11-10T04:45:47.111Z,97534.92
2018-11-10T04:48:18.799Z,97528.31
2018-11-10T04:50:51.600Z,97530.40
2018-11-10T04:53:23.140Z,97529.52
2018-11-10T04:55:54.582Z,97518.14
2018-11-10T04:58:25.842Z,97506.90
2018-11-10T05:00:57.779Z,97515.73
2018-11-10T05:03:28.503Z,97511.64
2018-11-10T05:05:59.291Z,97510.92
2018-11-10T05:08:30.051Z,97520.01
2018-11-10T05:11:00.700Z,97520.83
2018-11-10T05:13:31.283Z,97516.48
2018-11-10T05:16:02.459Z,97517.10
2018-11-10T05:18:33.070Z,97511.94
2018-11-10T05:21:03.807Z,97502.40
2018-11-10T05:23:34.386Z,97494.84
2018-11-10T05:26:05.163Z,97490.95
2018-11-10T05:28:35.805Z,97484.24
2018-11-10T05:31:08.456Z,97483.27
2018-11-10T05:33:39.606Z,97487.51
2018-11-10T05:36:10.260Z,97496.66
2018-11-10T05:38:40.984Z,97506.56
2018-11-10T05:41:11.560Z,97492.36
2018-11-10T05:43:42.339Z,97490.19
2018-11-10T05:46:13.179Z,97499.28
2018-11-10T05:48:43.751Z,97506.17
2018-11-10T05:51:14.419Z,97512.30
2018-11-10T05:53:45.083Z,97507.36
2018-11-10T05:56:16.024Z,97514.73
2018-11-10T05:58:46.780Z,97515.23
2018-11-10T06:01:18.241Z,97512.42
2018-11-10T06:03:48.852Z,97513.89
2018-11-10T06:06:20.567Z,97515.42
2018-11-10T06:08:53.084Z,97520.88
2018-11-10T06:11:24.285Z,97516.87
2018-11-10T06:13:55.657Z,97524.84
2018-11-10T06:16:26.347Z,97526.37
2018-11-10T06:18:58.342Z,97525.70
2018-11-10T06:21:29.075Z,97525.60
2018-11-10T06:23:59.755Z,97527.02
2018-11-10T06:26:32.300Z,97530.00
2018-11-10T06:29:03.000Z,97524.69
2018-11-10T06:31:34.751Z,97523.66
2018-11-10T06:34:06.011Z,97525.94
2018-11-10T06:36:36.989Z,97528.31
2018-11-10T06:39:10.528Z,97523.23
2018-11-10T06:41:42.079Z,97521.72
2018-11-10T06:44:12.671Z,97524.70
2018-11-10T06:46:43.244Z,97516.78
2018-11-10T06:49:13.815Z,97518.20
2018-11-10T06:51:44.424Z,97525.34
2018-11-10T06:54:15.011Z,97525.45
2018-11-10T06:56:47.444Z,97526.53
2018-11-10T06:59:18.194Z,97524.15
2018-11-10T07:01:48.914Z,97526.86
2018-11-10T07:04:19.632Z,97517.60
2018-11-10T07:06:50.244Z,97516.19
2018-11-10T07:09:20.942Z,97510.39
2018-11-10T07:11:51.723Z,97517.60
2018-11-10T07:14:22.581Z,97509.47
2018-11-10T07:16:53.165Z,97513.11
2018-11-10T07:19:23.923Z,97522.48
2018-11-10T07:21:54.694Z,97527.46
2018-11-10T07:24:25.305Z,97525.94
2018-11-10T07:26:57.068Z,97525.13
2018-11-10T07:29:28.207Z,97527.06
2018-11-10T07:31:58.917Z,97528.48
2018-11-10T07:34:29.767Z,97531.72
2018-11-10T07:37:00.423Z,97529.34
2018-11-10T07:39:31.140Z,97530.69
2018-11-10T07:42:01.784Z,97535.22
2018-11-10T07:44:32.504Z,97526.97
2018-11-10T07:47:03.338Z,97520.12
2018-11-10T07:49:34.409Z,97531.84
2018-11-10T07:52:07.492Z,97527.00
2018-11-10T07:54:39.254Z,97528.34
2018-11-10T07:57:10.637Z,97533.69
2018-11-10T07:59:41.520Z,97522.50
2018-11-10T08:02:12.203Z,97528.81
2018-11-10T08:04:45.904Z,97521.13
2018-11-10T08:07:16.513Z,97514.84
2018-11-10T08:09:47.247Z,97518.52
2018-11-10T08:12:18.675Z,97520.56
2018-11-10T08:14:50.634Z,97515.45
2018-11-10T08:17:21.228Z,97520.69
2018-11-10T08:19:52.043Z,97524.92
2018-11-10T08:22:23.311Z,97524.01
2018-11-10T08:24:54.065Z,97531.93
2018-11-10T08:27:25.554Z,97529.83
2018-11-10T08:29:56.764Z,97532.41
2018-11-10T08:32:27.755Z,97529.22
2018-11-10T08:34:58.787Z,97530.52
2018-11-10T08:37:30.540Z,97536.93
2018-11-10T08:40:01.653Z,97530.75
2018-11-10T08:42:32.228Z,97535.04
2018-11-10T08:45:02.868Z,97537.99
2018-11-10T08:47:33.615Z,97543.18
2018-11-10T08:50:04.587Z,97541.88
2018-11-10T08:52:35.575Z,97539.16
2018-11-10T08:55:07.625Z,97541.03
2018-11-10T08:57:38.322Z,97541.98
2018-11-10T09:00:10.421Z,97551.48
2018-11-10T09:02:41.114Z,97548.38
2018-11-10T09:05:12.593Z,97552.30
2018-11-10T09:07:43.546Z,97552.39
2018-11-10T09:10:15.116Z,97547.53
2018-11-10T09:12:46.089Z,97546.11
2018-11-10T09:15:17.854Z,97545.25
2018-11-10T09:17:49.162Z,97547.86
2018-11-10T09:20:20.129Z,97540.23
2018-11-10T09:22:52.337Z,97543.78
2018-11-10T09:25:25.380Z,97553.77
2018-11-10T09:27:56.030Z,97548.55
2018-11-10T09:30:31.594Z,97540.58
2018-11-10T09:33:02.308Z,97537.59
2018-11-10T09:35:33.181Z,97534.24
2018-11-10T09:38:03.843Z,97539.78
2018-11-10T09:40:34.581Z,97536.91
2018-11-10T09:43:06.628Z,97540.66
2018-11-10T09:45:37.607Z,97538.52
2018-11-10T09:48:08.323Z,97533.34
2018-11-10T09:50:39.128Z,97527.55
2018-11-10T09:53:09.920Z,97538.30
2018-11-10T09:55:40.533Z,97533.02
2018-11-10T09:58:11.472Z,97534.23
2018-11-10T10:00:42.140Z,97529.73
2018-11-10T10:03:12.940Z,97529.17
2018-11-10T10:05:43.688Z,97530.41
2018-11-10T10:08:15.584Z,97518.25
2018-11-10T10:10:46.164Z,97519.21
2018-11-10T10:13:17.112Z,97522.75
2018-11-10T10:15:47.841Z,97512.15
2018-11-10T10:18:18.884Z,97512.09
2018-11-10T10:20:49.208Z,97515.84
2018-11-10T10:23:20.166Z,97503.88
2018-11-10T10:25:50.856Z,97502.11
2018-11-10T10:28:21.689Z,97506.43
2018-11-10T10:30:52.636Z,97500.58
2018-11-10T10:33:23.271Z,97494.37
2018-11-10T10:35:54.109Z,97492.19
2018-11-10T10:38:24.739Z,97481.83
2018-11-10T10:40:55.475Z,97477.23
2018-11-10T10:43:26.156Z,97465.92
2018-11-10T10:45:57.541Z,97476.38
2018-11-10T10:48:28.220Z,97478.77
2018-11-10T10:50:59.108Z,97471.58
2018-11-10T10:53:29.918Z,97481.64
2018-11-10T10:56:00.630Z,97470.66
2018-11-10T10:58:31.548Z,97466.86
2018-11-10T11:01:14.212Z,97470.63
2018-11-10T11:04:54.668Z,97460.16
2018-11-10T11:07:26.520Z,97450.52
2018-11-10T11:09:57.571Z,97444.60
2018-11-10T11:12:28.244Z,97448.89
2018-11-10T11:14:59.045Z,97442.88
2018-11-10T11:17:29.797Z,97442.42
2018-11-10T11:20:00.423Z,97436.06
2018-11-10T11:22:31.580Z,97440.82
2018-11-10T11:25:02.344Z,97441.22
2018-11-10T11:27:32.976Z,97430.94
2018-11-10T11:30:04.621Z,97431.17
2018-11-10T11:32:35.504Z,97427.77
2018-11-10T11:35:09.867Z,97430.32
2018-11-10T11:37:41.472Z,97422.97
2018-11-10T11:40:15.472Z,97424.97
2018-11-10T11:42:46.856Z,97420.74
2018-11-10T11:45:19.155Z,97410.43
2018-11-10T11:47:50.389Z,97417.86
2018-11-10T11:50:21.889Z,97414.59
2018-11-10T11:52:52.968Z,97397.81
2018-11-10T11:55:24.533Z,97401.59
2018-11-10T11:57:56.055Z,97399.98
2018-11-10T12:00:26.952Z,97399.84
2018-11-10T12:02:58.080Z,97403.15
2018-11-10T12:05:30.605Z,97399.88
2018-11-10T12:08:02.259Z,97394.28
2018-11-10T12:10:34.329Z,97397.75
2018-11-10T12:13:05.075Z,97394.45
2018-11-10T12:15:36.675Z,97394.78
2018-11-10T12:18:07.475Z,97393.97
2018-11-10T12:20:38.402Z,97391.52
2018-11-10T12:23:09.022Z,97388.23
2018-11-10T12:25:39.768Z,97382.64
2018-11-10T12:28:10.538Z,97385.11
2018-11-10T12:30:41.173Z,97373.41
2018-11-10T12:33:13.145Z,97375.23
2018-11-10T12:35:43.865Z,97376.05
2018-11-10T12:38:14.759Z,97377.04
2018-11-10T12:40:45.476Z,97374.23
2018-11-10T12:43:16.788Z,97377.22
2018-11-10T12:45:47.604Z,97381.34
2018-11-10T12:48:19.050Z,97379.19
2018-11-10T12:50:50.057Z,97378.05
2018-11-10T12:53:21.004Z,97377.06
2018-11-10T12:55:53.112Z,97372.77
2018-11-10T12:58:23.908Z,97379.02
2018-11-10T13:00:56.690Z,97372.43
2018-11-10T13:03:28.109Z,97374.91
2018-11-10T13:05:58.891Z,97371.80
2018-11-10T13:08:29.599Z,97373.59
2018-11-10T13:11:00.305Z,97370.31
2018-11-10T13:13:31.047Z,97365.34
2018-11-10T13:16:02.402Z,97363.72
2018-11-10T13:18:33.082Z,97364.70
2018-11-10T13:21:03.895Z,97359.27
2018-11-10T13:23:34.732Z,97360.42
2018-11-10T13:26:05.640Z,97367.34
2018-11-10T13:28:36.232Z,97362.55
2018-11-10T13:31:07.502Z,97364.37
2018-11-10T13:33:38.988Z,97360.58
2018-11-10T13:36:09.589Z,97371.94
2018-11-10T13:38:40.658Z,97374.58
2018-11-10T13:41:11.611Z,97380.69
2018-11-10T13:43:42.620Z,97374.08
2018-11-10T13:46:13.324Z,97380.36
2018-11-10T13:48:44.308Z,97376.23
2018-11-10T13:51:15.423Z,97371.63
2018-11-10T13:53:45.998Z,97375.73
2018-11-10T13:56:16.633Z,97375.90
2018-11-10T13:58:47.707Z,97381.16
2018-11-10T14:01:18.307Z,97379.34
2018-11-10T14:03:49.117Z,97380.95
2018-11-10T14:06:19.866Z,97390.33
2018-11-10T14:08:50.487Z,97385.72
2018-11-10T14:11:21.214Z,97384.22
2018-11-10T14:13:51.787Z,97385.70
2018-11-10T14:16:22.515Z,97390.97
2018-11-10T14:18:53.138Z,97388.84
2018-11-10T14:21:24.147Z,97392.95
2018-11-10T14:23:55.014Z,97387.17
2018-11-10T14:26:26.129Z,97383.22
2018-11-10T14:28:56.836Z,97384.55
2018-11-10T14:31:27.578Z,97389.83
2018-11-10T14:33:58.205Z,97388.67
2018-11-10T14:36:29.688Z,97394.57
2018-11-10T14:39:00.882Z,97388.98
2018-11-10T14:41:33.382Z,97398.03
2018-11-10T14:44:04.256Z,97388.31
2018-11-10T14:46:35.829Z,97386.16
2018-11-10T14:49:07.373Z,97384.66
2018-11-10T14:51:38.272Z,97387.61
2018-11-10T14:54:08.889Z,97394.01
2018-11-10T14:56:39.843Z,97390.88
2018-11-10T14:59:10.561Z,97392.52
2018-11-10T15:01:41.444Z,97398.45
2018-11-10T15:04:12.176Z,97399.27
2018-11-10T15:06:43.135Z,97393.16
2018-11-10T15:09:13.791Z,97399.87
2018-11-10T15:11:44.704Z,97406.89
2018-11-10T15:14:15.594Z,97405.39
2018-11-10T15:16:46.436Z,97408.83
2018-11-10T15:19:17.161Z,97410.46
2018-11-10T15:21:47.800Z,97408.45
2018-11-10T15:24:18.416Z,97406.80
2018-11-10T15:26:49.323Z,97409.73
2018-11-10T15:29:19.905Z,97411.70
2018-11-10T15:31:51.164Z,97415.94
2018-11-10T15:34:22.276Z,97414.27
2018-11-10T15:36:54.760Z,97414.58
2018-11-10T15:39:26.108Z,97406.49
2018-11-10T15:41:57.048Z,97406.45
2018-11-10T15:44:28.179Z,97409.55
2018-11-10T15:46:59.883Z,97404.78
2018-11-10T15:49:31.212Z,97408.69
2018-11-10T15:52:03.721Z,97405.20
2018-11-10T15:54:37.277Z,97403.19
2018-11-10T15:57:08.328Z,97404.77
2018-11-10T15:59:39.277Z,97405.53
2018-11-10T16:02:09.900Z,97403.03
2018-11-10T16:04:40.377Z,97406.78
2018-11-10T16:07:11.119Z,97399.70
2018-11-10T16:09:41.845Z,97400.16
2018-11-10T16:12:12.685Z,97395.86
2018-11-10T16:14:43.351Z,97401.47
2018-11-10T16:17:13.971Z,97398.34
2018-11-10T16:19:45.501Z,97404.09
2018-11-10T16:22:16.089Z,97399.80
2018-11-10T16:24:46.721Z,97398.78
2018-11-10T16:27:17.403Z,97408.88
2018-11-10T16:29:48.051Z,97406.50
2018-11-10T16:32:18.681Z,97408.42
2018-11-10T16:34:49.350Z,97405.54
2018-11-10T16:37:20.129Z,97411.59
2018-11-10T16:39:51.039Z,97406.63
2018-11-10T16:42:21.656Z,97402.64
2018-11-10T16:44:52.315Z,97401.72
2018-11-10T16:47:23.060Z,97405.92
2018-11-10T16:49:53.652Z,97404.06
2018-11-10T16:52:25.537Z,97399.60
2018-11-10T16:54:56.348Z,97401.03
2018-11-10T16:57:28.249Z,97411.63
2018-11-10T16:59:59.077Z,97411.56
2018-11-10T17:02:30.417Z,97416.50
2018-11-10T17:05:01.092Z,97421.05
2018-11-10T17:07:32.300Z,97411.48
2018-11-10T17:10:04.023Z,97409.50
2018-11-10T17:12:34.711Z,97415.36
2018-11-10T17:15:05.720Z,97421.91
2018-11-10T17:17:36.389Z,97420.14
2018-11-10T17:20:10.545Z,97421.10
2018-11-10T17:22:41.549Z,97415.19
2018-11-10T17:25:15.043Z,97419.88
2018-11-10T17:27:52.508Z,97425.27
2018-11-10T17:30:23.344Z,97424.45
2018-11-10T17:32:54.069Z,97425.31
2018-11-10T17:35:25.864Z,97420.84
2018-11-10T17:37:56.625Z,97422.80
2018-11-10T17:40:27.564Z,97427.02
2018-11-10T17:42:58.363Z,97432.84
2018-11-10T17:45:29.059Z,97430.89
2018-11-10T17:47:59.388Z,97426.75
2018-11-10T17:50:30.107Z,97430.01
2018-11-10T17:53:00.888Z,97436.17
2018-11-10T17:55:31.591Z,97439.97
2018-11-10T17:58:02.205Z,97441.49
2018-11-10T18:00:32.825Z,97443.72
2018-11-10T18:03:03.712Z,97441.56
2018-11-10T18:05:34.525Z,97441.24
2018-11-10T18:08:05.996Z,97448.26
2018-11-10T18:10:36.591Z,97441.98
2018-11-10T18:13:07.864Z,97446.55
2018-11-10T18:15:38.759Z,97444.35
2018-11-10T18:18:09.433Z,97450.02
2018-11-10T18:20:40.203Z,97453.27
2018-11-10T18:23:11.088Z,97455.95
2018-11-10T18:25:41.744Z,97457.28
2018-11-10T18:28:12.392Z,97456.80
2018-11-10T18:30:43.084Z,97455.27
2018-11-10T18:33:13.821Z,97455.82
2018-11-10T18:35:44.463Z,97450.39
2018-11-10T18:38:15.200Z,97453.61
2018-11-10T18:40:45.816Z,97452.58
2018-11-10T18:43:16.572Z,97455.83
2018-11-10T18:45:47.295Z,97455.83
2018-11-10T18:48:17.980Z,97453.70
2018-11-10T18:50:48.847Z,97452.25
2018-11-10T18:53:19.577Z,97463.82
2018-11-10T18:55:50.364Z,97460.44
2018-11-10T18:58:21.193Z,97457.90
2018-11-10T19:00:51.992Z,97461.91
2018-11-10T19:03:23.245Z,97468.78
2018-11-10T19:05:53.919Z,97465.56
2018-11-10T19:08:24.704Z,97468.46
2018-11-10T19:10:55.528Z,97465.34
2018-11-10T19:13:26.175Z,97475.20
2018-11-10T19:15:57.075Z,97472.30
2018-11-10T19:18:27.843Z,97467.06
2018-11-10T19:20:58.725Z,97457.97
2018-11-10T19:23:30.529Z,97462.39
2018-11-10T19:26:02.609Z,97459.20
2018-11-10T19:28:35.106Z,97454.09
2018-11-10T19:31:06.124Z,97460.65
2018-11-10T19:33:37.539Z,97458.16
2018-11-10T19:36:08.649Z,97462.51
2018-11-10T19:38:40.435Z,97453.89
2018-11-10T19:41:12.527Z,97460.44
2018-11-10T19:43:43.543Z,97462.37
2018-11-10T19:46:14.451Z,97460.17
2018-11-10T19:48:45.331Z,97451.91
2018-11-10T19:51:17.328Z,97453.63
2018-11-10T19:53:48.052Z,97458.17
2018-11-10T19:56:18.767Z,97449.83
2018-11-10T19:58:49.498Z,97448.25
2018-11-10T20:01:21.316Z,97445.13
2018-11-10T20:03:52.024Z,97445.40
2018-11-10T20:06:22.932Z,97445.36
2018-11-10T20:08:53.856Z,97450.46
2018-11-10T20:11:24.598Z,97446.53
2018-11-10T20:13:55.278Z,97439.45
2018-11-10T20:16:26.145Z,97443.14
2018-11-10T20:18:57.092Z,97440.53
2018-11-10T20:21:27.855Z,97444.95
2018-11-10T20:23:58.636Z,97443.59
2018-11-10T20:26:29.313Z,97455.42
2018-11-10T20:28:59.939Z,97450.69
2018-11-10T20:31:30.773Z,97455.11
2018-11-10T20:34:01.373Z,97458.27
2018-11-10T20:36:32.050Z,97460.39
2018-11-10T20:39:02.860Z,97463.73
2018-11-10T20:41:33.484Z,97455.16
2018-11-10T20:44:04.145Z,97443.60
2018-11-10T20:46:34.828Z,97445.73
2018-11-10T20:49:05.805Z,97452.41
2018-11-10T20:51:36.549Z,97458.77
2018-11-10T20:54:07.799Z,97459.58
2018-11-10T20:56:38.530Z,97452.12
2018-11-10T20:59:09.418Z,97459.98
2018-11-10T21:01:40.429Z,97463.55
2018-11-10T21:04:11.213Z,97462.78
2018-11-10T21:06:42.172Z,97457.94
2018-11-10T21:09:13.639Z,97458.80
2018-11-10T21:11:44.427Z,97451.03
2018-11-10T21:14:15.061Z,97452.66
2018-11-10T21:16:46.739Z,97447.96
2018-11-10T21:19:19.428Z,97454.17
2018-11-10T21:21:51.676Z,97458.78
2018-11-10T21:24:23.212Z,97454.50
2018-11-10T21:26:54.406Z,97460.72
2018-11-10T21:29:25.168Z,97461.89
2018-11-10T21:31:57.544Z,97457.12
2018-11-10T21:34:28.328Z,97454.70
2018-11-10T21:37:00.370Z,97463.92
2018-11-10T21:39:31.180Z,97454.65
2018-11-10T21:42:04.128Z,97457.33
2018-11-10T21:44:35.306Z,97466.06
2018-11-10T21:47:07.029Z,97463.77
2018-11-10T21:49:37.747Z,97468.14
2018-11-10T21:52:08.448Z,97461.77
2018-11-10T21:54:38.891Z,97459.23
2018-11-10T21:57:09.323Z,97455.95
2018-11-10T21:59:39.992Z,97451.35
2018-11-10T22:02:10.741Z,97448.40
2018-11-10T22:04:41.612Z,97450.69
2018-11-10T22:07:12.456Z,97452.31
2018-11-10T22:09:44.051Z,97454.80
2018-11-10T22:12:15.115Z,97457.39
2018-11-10T22:14:45.861Z,97456.91
2018-11-10T22:17:16.670Z,97461.88
2018-11-10T22:19:47.554Z,97463.31
2018-11-10T22:22:18.311Z,97465.72
2018-11-10T22:24:49.192Z,97455.14
2018-11-10T22:27:19.979Z,97452.66
2018-11-10T22:29:50.632Z,97448.37
2018-11-10T22:32:21.271Z,97443.38
2018-11-10T22:34:51.973Z,97448.68
2018-11-10T22:37:22.676Z,97456.88
2018-11-10T22:39:55.652Z,97468.25
2018-11-10T22:42:26.613Z,97476.91
2018-11-10T22:44:57.343Z,97481.58
2018-11-10T22:47:28.092Z,97487.31
2018-11-10T22:49:58.841Z,97493.59
2018-11-10T22:52:31.100Z,97500.00
2018-11-10T22:55:01.793Z,97500.70
2018-11-10T22:57:32.679Z,97504.03
2018-11-10T23:00:04.683Z,97495.01
2018-11-10T23:02:36.819Z,97505.92
2018-11-10T23:05:08.347Z,97501.31
2018-11-10T23:07:41.114Z,97498.52
2018-11-10T23:10:11.557Z,97495.92
2018-11-10T23:12:43.001Z,97503.65
2018-11-10T23:15:14.544Z,97503.70
2018-11-10T23:17:45.565Z,97504.77
2018-11-10T23:20:17.492Z,97505.27
2018-11-10T23:22:48.410Z,97509.80
2018-11-10T23:25:20.007Z,97516.09
2018-11-10T23:27:50.749Z,97514.34
2018-11-10T23:30:22.696Z,97520.88
2018-11-10T23:32:53.351Z,97521.36
2018-11-10T23:35:24.052Z,97526.34
2018-11-10T23:37:54.745Z,97529.52
2018-11-10T23:40:25.336Z,97531.63
2018-11-10T23:42:56.282Z,97532.69
2018-11-10T23:45:27.202Z,97533.25
2018-11-10T23:47:57.953Z,97537.66
2018-11-10T23:50:28.671Z,97541.09
2018-11-10T23:52:59.367Z,97542.27
2018-11-10T23:55:30.148Z,97549.38
2018-11-10T23:58:01.168Z,97551.98
